Hickory Point, Tennessee
Current Conditions -  °F | °C
As of 8:28 AM on Thursday 18 Dec 2014 (Local Time) from KCKV Reporting Station
Freezing Rain Freezing Rain  
Wind Chill: 33°   Ceiling: 4100
Heat Index: 33°   Visibility: 5mi
Dew Point: 30°   Wind: 3mph
Humidity: 89%   Direction: 40°NE
Pressure: 30.26"   Gusts: NA
Location:  36.4964°N, 87.234°W
Report Text: KCKV 181428Z AUTO 04003KT 5SM -FZRA BR OVC041 01/M01 A3026 RMK AO2 FZRAB22 P0000 I1001 T00061011
Loading
Personal Weather Stations






























Interactive Weather Map New forecast layout! Learn more

10-Day Weather Forecast

Advertisements
Track Severe Weather on mobile